Time;durP1;ratioP1;P1;durP2;ratioP2;P2;SDS_P1;SDS_P2;PMS_P1;PMS_P2;Temp;Humidity;BMP_temperature;BMP_pressure;BME280_temperature;BME280_humidity;BME280_pressure;Samples;Min_cycle;Max_cycle;Signal;HPM_P1;HPM_P2
2023/01/14 00:04:54;;;;;;;0.28;0.20;;;;;;;-146.30;100.00;58188.94;10415902;28;20500;-87
2023/01/14 00:09:56;;;;;;;0.10;0.10;;;;;;;-146.30;100.00;58188.94;10419222;28;20067;-88
2023/01/14 00:15:01;;;;;;;0.00;0.00;;;;;;;-146.30;100.00;58188.94;10440145;28;20044;-87
2023/01/14 00:20:03;;;;;;;0.00;0.00;;;;;;;-146.30;100.00;58188.94;10421145;28;20045;-87
2023/01/14 00:25:04;;;;;;;1.02;0.43;;;;;;;-146.30;100.00;58188.94;10403099;28;20069;-87
2023/01/14 00:30:08;;;;;;;0.52;0.52;;;;;;;-146.30;100.00;58188.94;10428587;28;20444;-87
2023/01/14 00:35:10;;;;;;;1.10;0.75;;;;;;;-146.30;100.00;58188.94;10426806;28;20115;-89
2023/01/14 00:40:11;;;;;;;1.02;0.40;;;;;;;-146.30;100.00;58188.94;10386807;28;20045;-87
2023/01/14 00:45:13;;;;;;;0.00;0.00;;;;;;;-146.30;100.00;58188.94;10398580;28;20095;-86
2023/01/14 00:50:15;;;;;;;1.35;0.10;;;;;;;-146.30;100.00;58188.94;10398352;28;20135;-86
2023/01/14 00:55:17;;;;;;;0.20;0.20;;;;;;;-146.30;100.00;58188.94;10441447;28;20065;-87
2023/01/14 01:00:19;;;;;;;1.13;0.60;;;;;;;-146.30;100.00;58188.94;10435867;28;20550;-89
2023/01/14 01:05:20;;;;;;;0.80;0.20;;;;;;;-146.30;100.00;58188.94;10418934;28;20107;-89
2023/01/14 01:10:22;;;;;;;0.05;0.05;;;;;;;-146.30;100.00;58188.94;10418110;28;20065;-87
2023/01/14 01:15:24;;;;;;;0.00;0.00;;;;;;;-146.30;100.00;58188.94;10414281;28;20034;-86
2023/01/14 01:20:30;;;;;;;0.20;0.20;;;;;;;-146.30;100.00;58188.94;10397575;28;20057;-77
2023/01/14 01:25:33;;;;;;;0.22;0.22;;;;;;;-146.30;100.00;58188.94;10373183;28;20072;-78
2023/01/14 01:30:35;;;;;;;0.00;0.00;;;;;;;-146.30;100.00;58188.94;10424593;28;20053;-77
2023/01/14 01:35:36;;;;;;;7.55;0.52;;;;;;;-146.30;100.00;58188.94;10408716;28;20051;-78
2023/01/14 01:40:38;;;;;;;0.00;0.00;;;;;;;-146.30;100.00;58188.94;10389583;28;20452;-78
2023/01/14 01:45:48;;;;;;;0.32;0.32;;;;;;;-146.30;100.00;58188.94;10413172;28;20045;-78
2023/01/14 01:50:59;;;;;;;0.10;0.10;;;;;;;-146.30;100.00;58188.94;10397121;28;20041;-78
2023/01/14 01:56:03;;;;;;;5.18;0.10;;;;;;;-146.30;100.00;58188.94;10418318;28;20489;-78
2023/01/14 02:01:04;;;;;;;0.05;0.03;;;;;;;-146.30;100.00;58188.94;10391946;28;20045;-78
2023/01/14 02:06:07;;;;;;;0.25;0.08;;;;;;;-146.30;100.00;58188.94;10420490;28;20045;-76
2023/01/14 02:11:31;;;;;;;0.00;0.00;;;;;;;-146.30;100.00;58188.94;10420561;28;20481;-77
2023/01/14 02:17:09;;;;;;;0.32;0.10;;;;;;;-146.30;100.00;58188.94;10420069;28;20045;-78
2023/01/14 02:22:40;;;;;;;0.85;0.63;;;;;;;-146.30;100.00;58188.94;10420263;28;20405;-78
2023/01/14 02:28:12;;;;;;;0.10;0.10;;;;;;;-146.30;100.00;58188.94;10391578;28;20440;-77
2023/01/14 02:33:26;;;;;;;0.52;0.10;;;;;;;-146.30;100.00;58188.94;10394993;28;20049;-78
2023/01/14 02:38:59;;;;;;;0.10;0.10;;;;;;;-146.30;100.00;58188.94;10419639;28;20049;-78
2023/01/14 02:44:10;;;;;;;0.50;0.50;;;;;;;-146.30;100.00;58188.94;10408660;28;20046;-78
2023/01/14 02:49:23;;;;;;;0.00;0.00;;;;;;;-146.30;100.00;58188.94;10419208;28;20050;-78
2023/01/14 02:54:25;;;;;;;0.52;0.28;;;;;;;-146.30;100.00;58188.94;10418599;28;20053;-78
2023/01/14 02:59:40;;;;;;;2.58;0.25;;;;;;;-146.30;100.00;58188.94;10402325;28;20046;-77
2023/01/14 03:05:15;;;;;;;1.45;0.70;;;;;;;-146.30;100.00;58188.94;10417549;28;20554;-78
2023/01/14 03:10:28;;;;;;;0.55;0.38;;;;;;;-146.30;100.00;58188.94;10417964;28;20048;-78
2023/01/14 03:15:47;;;;;;;1.13;0.43;;;;;;;-146.30;100.00;58188.94;10399828;28;20120;-78
2023/01/14 03:20:58;;;;;;;0.90;0.57;;;;;;;-146.30;100.00;58188.94;10401013;28;20053;-77
2023/01/14 03:26:01;;;;;;;0.10;0.10;;;;;;;-146.30;100.00;58188.94;10405756;28;20068;-78
2023/01/14 03:31:09;;;;;;;8.13;0.28;;;;;;;-146.30;100.00;58188.94;10435312;28;20132;-77
2023/01/14 03:36:19;;;;;;;0.57;0.57;;;;;;;-146.30;100.00;58188.94;10413279;28;20136;-76
2023/01/14 03:46:42;;;;;;;1.45;0.98;;;;;;;-146.30;100.00;58188.94;10427003;28;20108;-78
2023/01/14 03:52:00;;;;;;;0.00;0.00;;;;;;;-146.30;100.00;58188.94;10411103;28;20046;-77
2023/01/14 03:57:17;;;;;;;0.03;0.03;;;;;;;-146.30;100.00;58188.94;10429239;28;20104;-78
2023/01/14 04:02:22;;;;;;;2.50;1.10;;;;;;;-146.30;100.00;58188.94;10415771;28;20053;-77
2023/01/14 04:07:24;;;;;;;0.55;0.43;;;;;;;-146.30;100.00;58188.94;10397370;28;20065;-77
2023/01/14 04:12:26;;;;;;;0.98;0.55;;;;;;;-146.30;100.00;58188.94;10415222;28;20049;-78
2023/01/14 04:17:27;;;;;;;0.28;0.25;;;;;;;-146.30;100.00;58188.94;10415121;28;20456;-78
2023/01/14 04:22:29;;;;;;;0.47;0.47;;;;;;;-146.30;100.00;58188.94;10414685;28;20060;-77
2023/01/14 04:27:31;;;;;;;0.52;0.52;;;;;;;-146.30;100.00;58188.94;10398228;28;20136;-77
2023/01/14 04:32:33;;;;;;;0.00;0.00;;;;;;;-146.30;100.00;58188.94;10415139;28;20048;-77
2023/01/14 04:37:34;;;;;;;0.10;0.10;;;;;;;-146.30;100.00;58188.94;10414099;28;20046;-77
2023/01/14 04:42:36;;;;;;;0.00;0.00;;;;;;;-146.30;100.00;58188.94;10398483;28;20045;-78
2023/01/14 04:47:38;;;;;;;0.25;0.25;;;;;;;-146.30;100.00;58188.94;10415540;28;20116;-77
2023/01/14 04:52:40;;;;;;;0.00;0.00;;;;;;;-146.30;100.00;58188.94;10413475;28;20416;-78
2023/01/14 04:57:41;;;;;;;1.25;0.60;;;;;;;-146.30;100.00;58188.94;10415620;28;20103;-77
2023/01/14 05:02:43;;;;;;;3.00;1.20;;;;;;;-146.30;100.00;58188.94;10396992;28;20045;-77
2023/01/14 05:07:44;;;;;;;0.00;0.00;;;;;;;-146.30;100.00;58188.94;10413230;28;20042;-78
2023/01/14 05:12:58;;;;;;;3.42;0.75;;;;;;;-146.30;100.00;58188.94;10397024;28;20073;-77
2023/01/14 05:18:00;;;;;;;0.22;0.22;;;;;;;-146.30;100.00;58188.94;10396951;28;20069;-77
2023/01/14 05:23:10;;;;;;;0.10;0.10;;;;;;;-146.30;100.00;58188.94;10394760;28;20112;-77
2023/01/14 05:28:14;;;;;;;0.57;0.43;;;;;;;-146.30;100.00;58188.94;10388891;28;20048;-77
2023/01/14 05:33:16;;;;;;;0.00;0.00;;;;;;;-146.30;100.00;58188.94;10414058;28;20092;-78
2023/01/14 05:38:18;;;;;;;0.00;0.00;;;;;;;-146.30;100.00;58188.94;10416600;28;20095;-78
2023/01/14 05:48:40;;;;;;;0.38;0.38;;;;;;;-146.30;100.00;58188.94;10414623;28;20111;-78
2023/01/14 05:53:43;;;;;;;0.00;0.00;;;;;;;-146.30;100.00;58188.94;10395454;28;20042;-78
2023/01/14 05:58:45;;;;;;;0.38;0.30;;;;;;;-146.30;100.00;58188.94;10425539;28;20037;-79
2023/01/14 06:09:11;;;;;;;0.08;0.08;;;;;;;-146.30;100.00;58188.94;10409724;28;20069;-79
2023/01/14 06:14:13;;;;;;;0.15;0.13;;;;;;;-146.30;100.00;58188.94;10397680;28;20068;-78
2023/01/14 06:19:14;;;;;;;0.47;0.10;;;;;;;-146.30;100.00;58188.94;10411668;28;20037;-78
2023/01/14 06:24:16;;;;;;;0.00;0.00;;;;;;;-146.30;100.00;58188.94;10410846;28;20057;-78
2023/01/14 06:29:18;;;;;;;0.00;0.00;;;;;;;-146.30;100.00;58188.94;10405129;28;20084;-77
2023/01/14 06:34:21;;;;;;;3.80;1.00;;;;;;;-146.30;100.00;58188.94;10421537;28;20054;-78
2023/01/14 06:39:23;;;;;;;0.68;0.45;;;;;;;-146.30;100.00;58188.94;10385003;28;20049;-77
2023/01/14 06:44:24;;;;;;;0.00;0.00;;;;;;;-146.30;100.00;58188.94;10418483;28;20053;-79
2023/01/14 06:49:26;;;;;;;4.53;1.17;;;;;;;-146.30;100.00;58188.94;10418155;28;20481;-78
2023/01/14 06:54:27;;;;;;;0.00;0.00;;;;;;;-146.30;100.00;58188.94;10417507;28;20115;-78
2023/01/14 06:59:29;;;;;;;0.00;0.00;;;;;;;-146.30;100.00;58188.94;10407702;28;20092;-78
2023/01/14 07:04:31;;;;;;;0.70;0.28;;;;;;;-146.30;100.00;58188.94;10412502;28;20041;-80
2023/01/14 07:09:33;;;;;;;0.00;0.00;;;;;;;-146.30;100.00;58188.94;10411374;28;20672;-79
2023/01/14 07:14:34;;;;;;;1.67;0.45;;;;;;;-146.30;100.00;58188.94;10388165;28;20177;-79
2023/01/14 07:19:36;;;;;;;0.00;0.00;;;;;;;-146.30;100.00;58188.94;10387251;28;20103;-79
2023/01/14 07:24:37;;;;;;;0.00;0.00;;;;;;;-146.30;100.00;58188.94;10392588;28;20087;-79
2023/01/14 07:29:39;;;;;;;0.35;0.32;;;;;;;-146.30;100.00;58188.94;10421506;28;20048;-78
2023/01/14 07:34:41;;;;;;;0.03;0.03;;;;;;;-146.30;100.00;58188.94;10385636;28;20449;-77
2023/01/14 07:39:42;;;;;;;0.00;0.00;;;;;;;-146.30;100.00;58188.94;10415598;28;20083;-77
2023/01/14 07:44:44;;;;;;;0.08;0.08;;;;;;;-146.30;100.00;58188.94;10429282;28;20136;-78
2023/01/14 07:49:48;;;;;;;1.75;0.30;;;;;;;-146.30;100.00;58188.94;10399088;28;20046;-77
2023/01/14 07:54:50;;;;;;;1.13;0.57;;;;;;;-146.30;100.00;58188.94;10400028;28;20091;-76
2023/01/14 07:59:51;;;;;;;0.00;0.00;;;;;;;-146.30;100.00;58188.94;10417870;28;20132;-76
2023/01/14 08:04:53;;;;;;;0.00;0.00;;;;;;;-146.30;100.00;58188.94;10408107;28;20053;-76
2023/01/14 08:09:55;;;;;;;0.47;0.47;;;;;;;-146.30;100.00;58188.94;10417477;28;20124;-77
2023/01/14 08:14:56;;;;;;;1.50;0.32;;;;;;;-146.30;100.00;58188.94;10416591;28;20053;-76
2023/01/14 08:19:58;;;;;;;1.00;0.52;;;;;;;-146.30;100.00;58188.94;10391695;28;20045;-76
2023/01/14 08:24:59;;;;;;;0.08;0.08;;;;;;;-146.30;100.00;58188.94;10395801;28;20046;-77
2023/01/14 08:30:02;;;;;;;0.03;0.03;;;;;;;-146.30;100.00;58188.94;10415672;28;20103;-76
2023/01/14 08:35:04;;;;;;;0.10;0.10;;;;;;;-146.30;100.00;58188.94;10415613;28;20107;-77
2023/01/14 08:40:06;;;;;;;1.77;0.75;;;;;;;-146.30;100.00;58188.94;10417032;28;20037;-76
2023/01/14 08:45:08;;;;;;;0.20;0.20;;;;;;;-146.30;100.00;58188.94;10416906;28;20049;-76
2023/01/14 08:50:10;;;;;;;0.00;0.00;;;;;;;-146.30;100.00;58188.94;10415140;28;20038;-76
2023/01/14 08:55:12;;;;;;;0.00;0.00;;;;;;;-146.30;100.00;58188.94;10416296;28;20037;-78
2023/01/14 09:00:14;;;;;;;0.15;0.03;;;;;;;-146.30;100.00;58188.94;10414920;28;20037;-77
2023/01/14 09:05:16;;;;;;;0.65;0.55;;;;;;;-146.30;100.00;58188.94;10415696;28;20099;-77
2023/01/14 09:20:59;;;;;;;0.10;0.10;;;;;;;-146.30;100.00;58188.94;10413519;28;20533;-77
2023/01/14 09:26:00;;;;;;;0.75;0.70;;;;;;;-146.30;100.00;58188.94;10397433;28;20099;-77
2023/01/14 09:31:02;;;;;;;0.20;0.20;;;;;;;-146.30;100.00;58188.94;10413545;28;20448;-78
2023/01/14 09:36:04;;;;;;;0.00;0.00;;;;;;;-146.30;100.00;58188.94;10403297;28;20084;-77
2023/01/14 09:41:06;;;;;;;1.65;0.70;;;;;;;-146.30;100.00;58188.94;10408044;28;20060;-77
2023/01/14 09:46:11;;;;;;;0.30;0.30;;;;;;;-146.30;100.00;58188.94;10413435;28;20045;-76
2023/01/14 09:51:13;;;;;;;0.43;0.43;;;;;;;-146.30;100.00;58188.94;10413726;28;20547;-77
2023/01/14 09:56:30;;;;;;;0.40;0.40;;;;;;;-146.30;100.00;58188.94;10387851;28;20490;-77
2023/01/14 10:01:44;;;;;;;0.00;0.00;;;;;;;-146.30;100.00;58188.94;10389271;28;20098;-77
2023/01/14 10:06:51;;;;;;;0.00;0.00;;;;;;;-146.30;100.00;58188.94;10429462;28;20053;-76
2023/01/14 10:11:56;;;;;;;0.00;0.00;;;;;;;-146.30;100.00;58188.94;10413164;28;20084;-78
2023/01/14 10:17:04;;;;;;;0.00;0.00;;;;;;;-146.30;100.00;58188.94;10419305;28;20492;-77
2023/01/14 10:22:35;;;;;;;0.20;0.20;;;;;;;-146.30;100.00;58188.94;10421129;28;20041;-77
2023/01/14 10:27:37;;;;;;;0.08;0.08;;;;;;;-146.30;100.00;58188.94;10404524;28;20425;-78
2023/01/14 10:32:38;;;;;;;0.20;0.20;;;;;;;-146.30;100.00;58188.94;10416155;28;20136;-78
2023/01/14 10:37:40;;;;;;;0.10;0.10;;;;;;;-146.30;100.00;58188.94;10420451;28;20084;-77
2023/01/14 10:42:41;;;;;;;0.00;0.00;;;;;;;-146.30;100.00;58188.94;10403992;28;20104;-77
2023/01/14 10:47:45;;;;;;;0.00;0.00;;;;;;;-146.30;100.00;58188.94;10420057;28;20072;-78
2023/01/14 10:52:46;;;;;;;0.20;0.13;;;;;;;-146.30;100.00;58188.94;10420842;28;20080;-78
2023/01/14 10:58:11;;;;;;;1.20;1.10;;;;;;;-146.30;100.00;58188.94;10427619;28;20060;-78
2023/01/14 11:03:30;;;;;;;0.30;0.10;;;;;;;-146.30;100.00;58188.94;10415925;28;20052;-77
2023/01/14 11:08:39;;;;;;;0.00;0.00;;;;;;;-146.30;100.00;58188.94;10417770;28;20045;-77
2023/01/14 11:13:48;;;;;;;0.00;0.00;;;;;;;-146.30;100.00;58188.94;10427872;28;20049;-78
2023/01/14 11:18:53;;;;;;;0.68;0.32;;;;;;;-146.30;100.00;58188.94;10419252;28;20042;-77
2023/01/14 11:23:56;;;;;;;0.60;0.38;;;;;;;-146.30;100.00;58188.94;10418996;28;20747;-77
2023/01/14 11:29:20;;;;;;;0.20;0.10;;;;;;;-146.30;100.00;58188.94;10417953;28;20401;-78
2023/01/14 11:34:31;;;;;;;0.00;0.00;;;;;;;-146.30;100.00;58188.94;10419094;28;20041;-77
2023/01/14 11:39:38;;;;;;;0.55;0.30;;;;;;;-146.30;100.00;58188.94;10403137;28;20045;-78
2023/01/14 11:44:40;;;;;;;0.00;0.00;;;;;;;-146.30;100.00;58188.94;10420716;28;20084;-77
2023/01/14 11:49:41;;;;;;;0.10;0.10;;;;;;;-146.30;100.00;58188.94;10418979;28;20060;-78
2023/01/14 11:54:45;;;;;;;0.08;0.08;;;;;;;-146.30;100.00;58188.94;10418783;28;20046;-77
2023/01/14 11:59:49;;;;;;;0.00;0.00;;;;;;;-146.30;100.00;58188.94;10419090;28;20045;-78
2023/01/14 12:05:02;;;;;;;0.00;0.00;;;;;;;-146.30;100.00;58188.94;10417481;28;20144;-77
2023/01/14 12:10:27;;;;;;;0.10;0.10;;;;;;;-146.30;100.00;58188.94;10417333;28;20505;-76
2023/01/14 12:21:39;;;;;;;0.00;0.00;;;;;;;-146.30;100.00;58188.94;10392352;28;20081;-78
2023/01/14 12:26:45;;;;;;;0.38;0.38;;;;;;;-146.30;100.00;58188.94;10359365;28;20481;-78
2023/01/14 12:31:54;;;;;;;3.65;0.20;;;;;;;-146.30;100.00;58188.94;10397361;28;20144;-78
2023/01/14 12:37:03;;;;;;;1.05;0.80;;;;;;;-146.30;100.00;58188.94;10416197;28;20050;-79
2023/01/14 12:47:59;;;;;;;0.10;0.03;;;;;;;-146.30;100.00;58188.94;10425829;28;20451;-77
2023/01/14 12:53:00;;;;;;;0.00;0.00;;;;;;;-146.30;100.00;58188.94;10426618;28;20045;-77
2023/01/14 12:58:06;;;;;;;0.20;0.20;;;;;;;-146.30;100.00;58188.94;10399499;28;20053;-78
2023/01/14 13:03:18;;;;;;;0.00;0.00;;;;;;;-146.30;100.00;58188.94;10398179;28;20045;-79
2023/01/14 13:08:32;;;;;;;0.00;0.00;;;;;;;-146.30;100.00;58188.94;10414390;28;20087;-79
2023/01/14 13:13:36;;;;;;;0.00;0.00;;;;;;;-146.30;100.00;58188.94;10414450;28;20099;-77
2023/01/14 13:18:41;;;;;;;0.00;0.00;;;;;;;-146.30;100.00;58188.94;10414011;28;20068;-78
2023/01/14 13:23:42;;;;;;;0.00;0.00;;;;;;;-146.30;100.00;58188.94;10397922;28;20416;-78
2023/01/14 13:29:06;;;;;;;0.10;0.10;;;;;;;-146.30;100.00;58188.94;10413895;28;20073;-79
2023/01/14 13:34:28;;;;;;;0.00;0.00;;;;;;;-146.30;100.00;58188.94;10414039;28;20493;-77
2023/01/14 13:39:32;;;;;;;0.00;0.00;;;;;;;-146.30;100.00;58188.94;10414332;28;20072;-77
2023/01/14 13:44:37;;;;;;;0.00;0.00;;;;;;;-146.30;100.00;58188.94;10414003;28;20440;-78
2023/01/14 13:49:42;;;;;;;0.00;0.00;;;;;;;-146.30;100.00;58188.94;10417272;28;20080;-77
2023/01/14 13:54:50;;;;;;;0.00;0.00;;;;;;;-146.30;100.00;58188.94;10422001;28;20073;-77
2023/01/14 14:00:01;;;;;;;0.05;0.05;;;;;;;-146.30;100.00;58188.94;10416563;28;20038;-78
2023/01/14 14:05:33;;;;;;;0.00;0.00;;;;;;;-146.30;100.00;58188.94;10385563;28;20053;-77
2023/01/14 14:10:39;;;;;;;0.00;0.00;;;;;;;-146.30;100.00;58188.94;10421160;28;20091;-78
2023/01/14 14:15:51;;;;;;;0.00;0.00;;;;;;;-146.30;100.00;58188.94;10421675;28;20108;-78
2023/01/14 14:20:54;;;;;;;0.00;0.00;;;;;;;-146.30;100.00;58188.94;10421167;28;20412;-78
2023/01/14 14:25:56;;;;;;;0.30;0.25;;;;;;;-146.30;100.00;58188.94;10381048;28;20053;-78
2023/01/14 14:31:01;;;;;;;0.00;0.00;;;;;;;-146.30;100.00;58188.94;10419790;28;20452;-77
2023/01/14 14:36:17;;;;;;;0.00;0.00;;;;;;;-146.30;100.00;58188.94;10419820;28;20088;-78
2023/01/14 14:41:24;;;;;;;0.00;0.00;;;;;;;-146.30;100.00;58188.94;10438344;28;20048;-78
2023/01/14 14:46:26;;;;;;;0.00;0.00;;;;;;;-146.30;100.00;58188.94;10395554;28;20045;-77
2023/01/14 14:51:29;;;;;;;0.00;0.00;;;;;;;-146.30;100.00;58188.94;10418477;28;20481;-78
2023/01/14 14:56:31;;;;;;;0.00;0.00;;;;;;;-146.30;100.00;58188.94;10406442;28;20050;-79
2023/01/14 15:01:36;;;;;;;0.00;0.00;;;;;;;-146.30;100.00;58188.94;10407157;28;20041;-78
2023/01/14 15:06:39;;;;;;;0.00;0.00;;;;;;;-146.30;100.00;58188.94;10408545;28;20133;-75
2023/01/14 15:11:44;;;;;;;0.45;0.28;;;;;;;-146.30;100.00;58188.94;10404909;28;20038;-78
2023/01/14 15:16:53;;;;;;;0.38;0.17;;;;;;;-146.30;100.00;58188.94;10411242;28;20084;-76
2023/01/14 15:22:03;;;;;;;0.00;0.00;;;;;;;-146.30;100.00;58188.94;10429544;28;20061;-83
2023/01/14 15:27:06;;;;;;;0.00;0.00;;;;;;;-146.30;100.00;58188.94;10413515;28;20326;-82
2023/01/14 15:32:27;;;;;;;0.00;0.00;;;;;;;-146.30;100.00;58188.94;10419764;28;20069;-82
2023/01/14 15:37:29;;;;;;;0.17;0.15;;;;;;;-146.30;100.00;58188.94;10410112;28;20052;-83
2023/01/14 15:42:32;;;;;;;0.00;0.00;;;;;;;-146.30;100.00;58188.94;10426262;28;20045;-85
2023/01/14 15:47:33;;;;;;;0.20;0.20;;;;;;;-146.30;100.00;58188.94;10421330;28;20069;-86
2023/01/14 15:52:36;;;;;;;0.00;0.00;;;;;;;-146.30;100.00;58188.94;10417776;28;20103;-83
2023/01/14 15:57:40;;;;;;;0.00;0.00;;;;;;;-146.30;100.00;58188.94;10417347;28;20071;-83
2023/01/14 16:02:42;;;;;;;0.00;0.00;;;;;;;-146.30;100.00;58188.94;10406361;28;20049;-84
2023/01/14 16:07:44;;;;;;;0.03;0.03;;;;;;;-146.30;100.00;58188.94;10422272;28;20440;-86
2023/01/14 16:12:47;;;;;;;0.20;0.10;;;;;;;-146.30;100.00;58188.94;10414730;28;20046;-85
2023/01/14 16:17:50;;;;;;;0.20;0.10;;;;;;;-146.30;100.00;58188.94;10419768;28;20075;-84
2023/01/14 16:22:51;;;;;;;0.25;0.10;;;;;;;-146.30;100.00;58188.94;10421450;28;20041;-83
2023/01/14 16:27:53;;;;;;;0.00;0.00;;;;;;;-146.30;100.00;58188.94;10421766;28;20409;-85
2023/01/14 16:32:55;;;;;;;0.08;0.08;;;;;;;-146.30;100.00;58188.94;10419882;28;20041;-81
2023/01/14 16:37:57;;;;;;;0.00;0.00;;;;;;;-146.30;100.00;58188.94;10413230;28;20041;-80
2023/01/14 16:42:59;;;;;;;0.00;0.00;;;;;;;-146.30;100.00;58188.94;10411867;28;20107;-82
2023/01/14 16:48:00;;;;;;;0.10;0.10;;;;;;;-146.30;100.00;58188.94;10413232;28;20084;-83
2023/01/14 16:53:02;;;;;;;0.00;0.00;;;;;;;-146.30;100.00;58188.94;10413569;28;20052;-82
2023/01/14 16:58:05;;;;;;;0.25;0.25;;;;;;;-146.30;100.00;58188.94;10412538;28;20081;-83
2023/01/14 17:03:06;;;;;;;0.00;0.00;;;;;;;-146.30;100.00;58188.94;10438933;28;20053;-81
2023/01/14 17:08:08;;;;;;;0.00;0.00;;;;;;;-146.30;100.00;58188.94;10431170;28;20056;-81
2023/01/14 17:13:10;;;;;;;0.00;0.00;;;;;;;-146.30;100.00;58188.94;10417889;28;20547;-80
2023/01/14 17:18:12;;;;;;;0.00;0.00;;;;;;;-146.30;100.00;58188.94;10414462;28;20037;-80
2023/01/14 17:23:13;;;;;;;0.10;0.10;;;;;;;-146.30;100.00;58188.94;10408014;28;20540;-80
2023/01/14 17:28:15;;;;;;;0.70;0.08;;;;;;;-146.30;100.00;58188.94;10408032;28;20049;-80
2023/01/14 17:33:16;;;;;;;0.00;0.00;;;;;;;-146.30;100.00;58188.94;10424546;28;20120;-80
2023/01/14 17:38:18;;;;;;;0.35;0.22;;;;;;;-146.30;100.00;58188.94;10411777;28;20056;-79
2023/01/14 17:43:20;;;;;;;0.05;0.05;;;;;;;-146.30;100.00;58188.94;10438939;28;20042;-79
2023/01/14 17:48:22;;;;;;;0.35;0.28;;;;;;;-146.30;100.00;58188.94;10424912;28;20080;-80
2023/01/14 17:53:23;;;;;;;0.00;0.00;;;;;;;-146.30;100.00;58188.94;10409998;28;20057;-79
2023/01/14 17:58:25;;;;;;;0.00;0.00;;;;;;;-146.30;100.00;58188.94;10393687;28;20457;-79
2023/01/14 18:03:29;;;;;;;0.22;0.22;;;;;;;-146.30;100.00;58188.94;10392698;28;20049;-79
2023/01/14 18:08:33;;;;;;;0.15;0.10;;;;;;;-146.30;100.00;58188.94;10409857;28;20049;-80
2023/01/14 18:13:35;;;;;;;0.15;0.10;;;;;;;-146.30;100.00;58188.94;10411301;28;20048;-79
2023/01/14 18:18:37;;;;;;;0.05;0.05;;;;;;;-146.30;100.00;58188.94;10412151;28;20061;-80
2023/01/14 18:23:40;;;;;;;0.00;0.00;;;;;;;-146.30;100.00;58188.94;10419078;28;20115;-80
2023/01/14 18:28:50;;;;;;;0.22;0.13;;;;;;;-146.30;100.00;58188.94;10413681;28;20037;-80
2023/01/14 18:33:54;;;;;;;0.00;0.00;;;;;;;-146.30;100.00;58188.94;10430376;28;20046;-79
2023/01/14 18:38:56;;;;;;;0.10;0.03;;;;;;;-146.30;100.00;58188.94;10429985;28;20555;-80
2023/01/14 18:43:58;;;;;;;0.00;0.00;;;;;;;-146.30;100.00;58188.94;10436655;28;20053;-80
2023/01/14 18:48:59;;;;;;;0.75;0.30;;;;;;;-146.30;100.00;58188.94;10443792;28;20098;-80
2023/01/14 18:54:01;;;;;;;0.00;0.00;;;;;;;-146.30;100.00;58188.94;10429973;28;20079;-80
2023/01/14 18:59:02;;;;;;;0.10;0.10;;;;;;;-146.30;100.00;58188.94;10429770;28;20038;-79
2023/01/14 19:04:04;;;;;;;0.08;0.08;;;;;;;-146.30;100.00;58188.94;10429137;28;20115;-80
2023/01/14 19:09:06;;;;;;;0.00;0.00;;;;;;;-146.30;100.00;58188.94;10451967;28;20045;-80
2023/01/14 19:14:10;;;;;;;0.00;0.00;;;;;;;-146.30;100.00;58188.94;10427505;28;20069;-78
2023/01/14 19:19:17;;;;;;;0.00;0.00;;;;;;;-146.30;100.00;58188.94;10411296;28;20071;-79
2023/01/14 19:24:19;;;;;;;0.00;0.00;;;;;;;-146.30;100.00;58188.94;10414595;28;20049;-78
2023/01/14 19:29:24;;;;;;;1.75;0.40;;;;;;;-146.30;100.00;58188.94;10442275;28;20037;-79
2023/01/14 19:34:29;;;;;;;0.00;0.00;;;;;;;-146.30;100.00;58188.94;10448529;28;20045;-79
2023/01/14 19:39:31;;;;;;;0.10;0.10;;;;;;;-146.30;100.00;58188.94;10427824;28;20131;-78
2023/01/14 19:44:33;;;;;;;0.63;0.35;;;;;;;-146.30;100.00;58188.94;10440170;28;20049;-79
2023/01/14 19:49:34;;;;;;;0.25;0.20;;;;;;;-146.30;100.00;58188.94;10399129;28;20041;-79
2023/01/14 19:54:36;;;;;;;0.00;0.00;;;;;;;-146.30;100.00;58188.94;10425080;28;20546;-79
2023/01/14 19:59:37;;;;;;;3.30;0.75;;;;;;;-146.30;100.00;58188.94;10413882;28;20041;-78
2023/01/14 20:04:39;;;;;;;0.00;0.00;;;;;;;-146.30;100.00;58188.94;10427562;28;20124;-79
2023/01/14 20:09:41;;;;;;;0.00;0.00;;;;;;;-146.30;100.00;58188.94;10418156;28;20073;-79
2023/01/14 20:14:42;;;;;;;0.00;0.00;;;;;;;-146.30;100.00;58188.94;10407314;28;20052;-79
2023/01/14 20:19:44;;;;;;;0.10;0.10;;;;;;;-146.30;100.00;58188.94;10418548;28;20087;-80
2023/01/14 20:24:48;;;;;;;0.05;0.05;;;;;;;-146.30;100.00;58188.94;10415747;28;20049;-80
2023/01/14 20:29:50;;;;;;;0.00;0.00;;;;;;;-146.30;100.00;58188.94;10414713;28;20041;-79
2023/01/14 20:34:52;;;;;;;0.43;0.10;;;;;;;-146.30;100.00;58188.94;10425425;28;20111;-78
2023/01/14 20:39:54;;;;;;;0.08;0.08;;;;;;;-146.30;100.00;58188.94;10413239;28;20041;-79
2023/01/14 20:44:57;;;;;;;0.00;0.00;;;;;;;-146.30;100.00;58188.94;10424939;28;20129;-79
2023/01/14 20:49:59;;;;;;;0.00;0.00;;;;;;;-146.30;100.00;58188.94;10425619;28;20175;-80
2023/01/14 20:55:01;;;;;;;0.00;0.00;;;;;;;-146.30;100.00;58188.94;10426019;28;20456;-80
2023/01/14 21:00:03;;;;;;;0.00;0.00;;;;;;;-146.30;100.00;58188.94;10420480;28;20042;-80
2023/01/14 21:05:05;;;;;;;0.00;0.00;;;;;;;-146.30;100.00;58188.94;10410483;28;20124;-78
2023/01/14 21:10:07;;;;;;;0.10;0.10;;;;;;;-146.30;100.00;58188.94;10412490;28;20054;-79
2023/01/14 21:25:50;;;;;;;0.00;0.00;;;;;;;-146.30;100.00;58188.94;10432348;28;20012;-78
2023/01/14 21:30:53;;;;;;;0.00;0.00;;;;;;;-146.30;100.00;58188.94;10431180;28;20141;-79
2023/01/14 21:35:55;;;;;;;4.28;0.22;;;;;;;-146.30;100.00;58188.94;10437067;28;20544;-80
2023/01/14 21:46:32;;;;;;;0.00;0.00;;;;;;;-146.30;100.00;58188.94;10414567;28;20052;-78
2023/01/14 21:51:33;;;;;;;0.00;0.00;;;;;;;-146.30;100.00;58188.94;10408216;28;20540;-79
2023/01/14 21:56:35;;;;;;;0.00;0.00;;;;;;;-146.30;100.00;58188.94;10408019;28;20485;-79
2023/01/14 22:01:36;;;;;;;0.00;0.00;;;;;;;-146.30;100.00;58188.94;10428267;28;20497;-78
2023/01/14 22:06:38;;;;;;;0.00;0.00;;;;;;;-146.30;100.00;58188.94;10452167;28;20037;-78
2023/01/14 22:11:40;;;;;;;0.00;0.00;;;;;;;-146.30;100.00;58188.94;10430300;28;20128;-79
2023/01/14 22:16:42;;;;;;;0.00;0.00;;;;;;;-146.30;100.00;58188.94;10418864;28;20233;-80
2023/01/14 22:21:43;;;;;;;0.10;0.10;;;;;;;-146.30;100.00;58188.94;10431656;28;20557;-79
2023/01/14 22:26:45;;;;;;;1.48;0.65;;;;;;;-146.30;100.00;58188.94;10431513;28;20397;-79
2023/01/14 22:31:48;;;;;;;0.00;0.00;;;;;;;-146.30;100.00;58188.94;10419068;28;20138;-80
2023/01/14 22:36:51;;;;;;;0.25;0.15;;;;;;;-146.30;100.00;58188.94;10420810;28;20072;-79
2023/01/14 22:41:53;;;;;;;0.00;0.00;;;;;;;-146.30;100.00;58188.94;10425737;28;20060;-79
2023/01/14 22:46:57;;;;;;;0.10;0.10;;;;;;;-146.30;100.00;58188.94;10406546;28;20088;-80
2023/01/14 22:51:59;;;;;;;0.00;0.00;;;;;;;-146.30;100.00;58188.94;10410510;28;20046;-79
2023/01/14 22:57:01;;;;;;;0.00;0.00;;;;;;;-146.30;100.00;58188.94;10401601;28;20042;-79
2023/01/14 23:02:03;;;;;;;0.20;0.10;;;;;;;-146.30;100.00;58188.94;10391385;28;20537;-79
2023/01/14 23:07:04;;;;;;;2.10;0.43;;;;;;;-146.30;100.00;58188.94;10417431;28;20041;-80
2023/01/14 23:12:11;;;;;;;0.00;0.00;;;;;;;-146.30;100.00;58188.94;10415067;28;20049;-79
2023/01/14 23:17:29;;;;;;;0.10;0.10;;;;;;;-146.30;100.00;58188.94;10435671;28;20045;-79
2023/01/14 23:27:52;;;;;;;0.00;0.00;;;;;;;-146.30;100.00;58188.94;10436642;28;20044;-78
2023/01/14 23:32:53;;;;;;;0.00;0.00;;;;;;;-146.30;100.00;58188.94;10441424;28;20107;-78
2023/01/14 23:37:55;;;;;;;0.38;0.20;;;;;;;-146.30;100.00;58188.94;10446681;28;20427;-78
2023/01/14 23:42:56;;;;;;;0.10;0.10;;;;;;;-146.30;100.00;58188.94;10454316;28;20125;-78
2023/01/14 23:48:04;;;;;;;0.00;0.00;;;;;;;-146.30;100.00;58188.94;10428547;28;20108;-78
2023/01/14 23:53:06;;;;;;;6.45;0.47;;;;;;;-146.30;100.00;58188.94;10434002;28;20373;-78